Time;durP1;ratioP1;P1;durP2;ratioP2;P2;SDS_P1;SDS_P2;PMS_P1;PMS_P2;Temp;Humidity;BMP_temperature;BMP_pressure;BME280_temperature;BME280_humidity;BME280_pressure;Samples;Min_cycle;Max_cycle;Signal;HPM_P1;HPM_P2
2021/05/24 00:00:30;;;;;;;6.15;2.45;;;;;;;20.98;58.10;97574.72;5064620;28;20592;-78
2021/05/24 00:02:57;;;;;;;6.63;2.70;;;;;;;20.87;56.99;97572.28;5069847;28;20034;-78
2021/05/24 00:05:30;;;;;;;11.73;2.47;;;;;;;20.81;57.74;97568.31;5050871;28;20035;-77
2021/05/24 00:07:56;;;;;;;3.88;2.17;;;;;;;20.71;57.73;97566.69;5056387;28;20041;-77
2021/05/24 00:10:23;;;;;;;4.85;2.40;;;;;;;20.69;57.68;97569.59;5077685;28;20031;-77
2021/05/24 00:12:51;;;;;;;4.93;2.50;;;;;;;20.65;58.12;97581.78;5088951;28;20024;-78
2021/05/24 00:15:22;;;;;;;3.85;2.22;;;;;;;20.75;58.10;97598.88;5069286;28;20028;-77
2021/05/24 00:17:48;;;;;;;9.18;2.53;;;;;;;20.48;58.87;97578.06;5055463;28;20044;-78
2021/05/24 00:20:14;;;;;;;2.92;2.50;;;;;;;20.38;60.05;97587.31;5056012;28;20111;-77
2021/05/24 00:22:40;;;;;;;4.85;2.10;;;;;;;20.29;59.16;97590.94;5062992;28;20115;-77
2021/05/24 00:25:07;;;;;;;4.50;2.50;;;;;;;20.27;58.84;97588.38;5046681;28;20173;-77
2021/05/24 00:27:33;;;;;;;7.22;2.10;;;;;;;20.22;58.72;97570.78;5045491;28;20024;-78
2021/05/24 00:29:59;;;;;;;5.78;2.35;;;;;;;20.29;59.70;97593.66;5049223;28;20107;-78
2021/05/24 00:32:25;;;;;;;6.25;2.50;;;;;;;20.16;60.65;97587.72;5073443;28;20101;-78
2021/05/24 00:34:51;;;;;;;8.23;2.20;;;;;;;20.09;61.13;97594.78;5048783;28;20028;-77
2021/05/24 00:37:17;;;;;;;5.55;1.95;;;;;;;20.00;61.42;97602.81;5056884;28;20170;-78
2021/05/24 00:39:42;;;;;;;8.13;2.30;;;;;;;20.02;60.00;97603.53;5054516;28;20032;-77
2021/05/24 00:42:08;;;;;;;4.68;2.20;;;;;;;19.98;59.91;97607.56;5047070;28;20029;-77
2021/05/24 00:44:34;;;;;;;3.90;2.47;;;;;;;19.95;60.67;97607.00;5083759;28;20024;-78
2021/05/24 00:46:59;;;;;;;4.00;2.13;;;;;;;19.93;59.71;97598.16;5057184;28;20058;-78
2021/05/24 00:49:26;;;;;;;4.13;2.22;;;;;;;20.08;58.98;97617.50;5074015;28;20046;-77
2021/05/24 00:51:54;;;;;;;7.03;2.30;;;;;;;20.06;58.61;97627.69;5074397;28;20028;-77
2021/05/24 00:54:20;;;;;;;3.78;2.33;;;;;;;19.95;60.55;97621.44;5080982;28;20016;-77
2021/05/24 00:56:46;;;;;;;4.43;2.03;;;;;;;20.01;58.58;97623.56;5054098;28;20048;-77
2021/05/24 00:59:11;;;;;;;3.60;2.00;;;;;;;20.02;58.34;97619.84;5057142;28;20065;-78
2021/05/24 01:01:37;;;;;;;6.22;2.30;;;;;;;19.95;58.93;97624.16;5073287;28;20089;-77
2021/05/24 01:04:03;;;;;;;4.78;2.05;;;;;;;19.89;58.66;97630.19;5056033;28;20016;-78
2021/05/24 01:06:28;;;;;;;4.30;2.33;;;;;;;19.92;60.59;97665.19;5056325;28;20024;-76
2021/05/24 01:08:54;;;;;;;3.40;2.63;;;;;;;19.78;62.10;97671.09;5074178;28;20036;-77
2021/05/24 01:11:21;;;;;;;6.00;2.40;;;;;;;19.54;64.63;97657.19;5064211;28;20484;-77
2021/05/24 01:13:46;;;;;;;13.82;2.83;;;;;;;19.44;65.35;97678.09;5051140;28;20372;-77
2021/05/24 01:16:12;;;;;;;4.13;2.40;;;;;;;19.34;64.71;97683.50;5090534;28;20084;-78
2021/05/24 01:18:37;;;;;;;5.10;2.45;;;;;;;19.19;66.35;97674.13;5057325;28;20024;-77
2021/05/24 01:21:13;;;;;;;7.78;2.60;;;;;;;19.12;66.13;97674.81;5074089;28;20471;-77
2021/05/24 01:23:44;;;;;;;8.18;2.30;;;;;;;19.14;64.35;97689.09;5051484;28;20111;-78
2021/05/24 01:26:10;;;;;;;4.43;2.70;;;;;;;19.27;64.44;97711.34;5056809;28;20483;-78
2021/05/24 01:28:36;;;;;;;6.60;2.60;;;;;;;19.16;65.39;97709.66;5099428;28;20081;-78
2021/05/24 01:31:03;;;;;;;3.95;2.13;;;;;;;19.04;65.90;97721.63;5056739;28;20024;-77
2021/05/24 01:33:29;;;;;;;5.47;1.90;;;;;;;18.98;66.45;97722.19;5089551;28;20410;-78
2021/05/24 01:35:55;;;;;;;10.52;2.35;;;;;;;18.99;66.82;97725.78;5056756;28;20376;-77
2021/05/24 01:38:20;;;;;;;6.82;2.22;;;;;;;19.03;66.53;97721.78;5056541;28;20027;-78
2021/05/24 01:40:47;;;;;;;12.27;2.30;;;;;;;19.19;65.32;97735.63;5057091;28;20020;-77
2021/05/24 01:43:14;;;;;;;10.48;2.83;;;;;;;19.32;63.78;97739.75;5073875;28;20024;-78
2021/05/24 01:45:40;;;;;;;8.48;2.38;;;;;;;19.53;63.00;97736.91;5057385;28;20027;-78
2021/05/24 01:48:07;;;;;;;5.45;2.00;;;;;;;19.71;62.08;97743.28;5055491;28;20111;-78
2021/05/24 01:50:32;;;;;;;6.38;2.05;;;;;;;19.67;61.92;97754.56;5073791;28;20111;-78
2021/05/24 01:52:58;;;;;;;7.32;2.72;;;;;;;19.64;62.40;97755.72;5073463;28;20076;-78
2021/05/24 01:55:24;;;;;;;5.72;2.20;;;;;;;19.63;62.53;97764.88;5054537;28;20135;-77
2021/05/24 01:57:49;;;;;;;6.78;2.33;;;;;;;19.57;62.99;97761.88;5037417;28;20084;-77
2021/05/24 02:00:18;;;;;;;10.32;2.72;;;;;;;19.52;62.59;97775.91;5048820;28;20107;-77
2021/05/24 02:02:46;;;;;;;9.57;2.10;;;;;;;19.46;62.80;97780.06;5035964;28;20024;-77
2021/05/24 02:05:14;;;;;;;6.10;2.25;;;;;;;19.44;64.39;97782.03;5041227;28;20028;-77
2021/05/24 02:07:40;;;;;;;10.18;2.17;;;;;;;19.33;63.36;97770.44;5037361;28;20032;-77
2021/05/24 02:10:08;;;;;;;9.30;2.67;;;;;;;19.45;63.45;97791.03;5037131;28;20024;-78
2021/05/24 02:12:33;;;;;;;7.25;2.20;;;;;;;19.44;63.01;97798.31;5053929;28;20127;-77
2021/05/24 02:14:59;;;;;;;11.15;2.28;;;;;;;19.42;63.28;97783.19;5039093;28;20048;-77
2021/05/24 02:17:25;;;;;;;9.60;2.88;;;;;;;19.38;63.64;97793.44;5037885;28;20048;-77
2021/05/24 02:19:52;;;;;;;7.07;2.55;;;;;;;19.36;64.03;97808.13;5043900;28;20032;-77
2021/05/24 02:22:18;;;;;;;6.53;2.22;;;;;;;19.35;64.05;97825.41;5053725;28;20099;-78
2021/05/24 02:24:43;;;;;;;4.38;2.20;;;;;;;19.20;64.52;97821.41;5029513;28;20121;-77
2021/05/24 02:27:09;;;;;;;5.50;2.10;;;;;;;19.15;64.52;97827.28;5038017;28;20035;-77
2021/05/24 02:29:35;;;;;;;7.75;2.20;;;;;;;19.13;64.75;97836.56;5040995;28;20024;-77
2021/05/24 02:32:01;;;;;;;5.47;2.20;;;;;;;19.17;63.56;97838.81;5037147;28;20476;-77
2021/05/24 02:34:27;;;;;;;8.23;2.50;;;;;;;19.10;64.17;97839.56;5043210;28;20016;-77
2021/05/24 02:36:52;;;;;;;4.07;1.90;;;;;;;19.22;63.19;97841.13;5040760;28;20508;-77
2021/05/24 02:39:18;;;;;;;10.82;2.72;;;;;;;19.19;63.80;97850.41;5040459;28;20025;-79
2021/05/24 02:41:43;;;;;;;6.88;2.00;;;;;;;19.17;64.32;97848.81;5042793;28;20067;-78
2021/05/24 02:44:10;;;;;;;6.68;2.33;;;;;;;19.16;63.22;97852.53;5040066;28;20025;-78
2021/05/24 02:46:37;;;;;;;5.85;2.10;;;;;;;19.17;63.38;97859.66;5044226;28;20122;-79
2021/05/24 02:49:03;;;;;;;3.95;2.20;;;;;;;19.21;63.25;97861.09;5040629;28;20020;-78
2021/05/24 02:51:29;;;;;;;10.75;2.05;;;;;;;19.10;63.44;97870.25;5040469;28;20406;-78
2021/05/24 02:53:54;;;;;;;4.53;1.88;;;;;;;19.07;62.95;97875.09;5058092;28;20021;-78
2021/05/24 02:56:20;;;;;;;9.35;1.83;;;;;;;18.98;63.07;97865.06;5053175;28;20094;-78
2021/05/24 02:58:45;;;;;;;5.22;1.98;;;;;;;19.05;63.29;97882.47;5052012;28;20024;-78
2021/05/24 03:01:11;;;;;;;7.68;2.13;;;;;;;19.06;64.10;97890.50;5042856;28;20025;-79
2021/05/24 03:03:37;;;;;;;7.35;2.63;;;;;;;19.05;62.22;97882.47;5072821;28;20032;-79
2021/05/24 03:06:04;;;;;;;12.50;2.00;;;;;;;19.06;62.03;97889.63;5048563;28;20047;-78
2021/05/24 03:08:31;;;;;;;4.75;1.90;;;;;;;19.17;61.30;97903.91;5052699;28;20031;-78
2021/05/24 03:10:57;;;;;;;6.93;2.67;;;;;;;19.17;62.67;97903.06;5062259;28;20498;-78
2021/05/24 03:13:25;;;;;;;6.82;2.20;;;;;;;19.12;62.30;97908.06;5049381;28;20020;-77
2021/05/24 03:15:58;;;;;;;5.00;2.20;;;;;;;19.15;61.64;97914.06;5067295;28;20024;-79
2021/05/24 03:18:23;;;;;;;4.15;2.10;;;;;;;19.25;60.53;97922.22;5062566;28;20032;-78
2021/05/24 03:20:49;;;;;;;7.90;1.60;;;;;;;19.25;59.85;97916.81;5047860;28;20533;-79
2021/05/24 03:23:15;;;;;;;4.70;1.95;;;;;;;19.27;60.05;97920.22;5069915;28;20036;-79
2021/05/24 03:25:40;;;;;;;4.72;1.88;;;;;;;19.36;59.46;97930.22;5052651;28;20032;-77
2021/05/24 03:28:06;;;;;;;4.60;1.80;;;;;;;19.44;59.27;97933.16;5053965;28;20032;-77
2021/05/24 03:30:32;;;;;;;5.75;1.83;;;;;;;19.32;60.06;97924.22;5047505;28;20131;-78
2021/05/24 03:32:57;;;;;;;6.15;2.33;;;;;;;19.38;59.57;97939.94;5062902;28;20040;-78
2021/05/24 03:35:23;;;;;;;4.90;1.90;;;;;;;19.40;59.21;97938.00;5064177;28;20473;-77
2021/05/24 03:37:48;;;;;;;6.25;2.00;;;;;;;19.31;59.32;97944.22;5050800;28;20476;-78
2021/05/24 03:40:15;;;;;;;8.13;1.98;;;;;;;19.31;60.11;97955.09;5051858;28;20114;-78
2021/05/24 03:42:40;;;;;;;4.47;2.10;;;;;;;19.32;59.85;97945.94;5066045;28;20031;-78
2021/05/24 03:45:08;;;;;;;10.32;2.88;;;;;;;19.37;60.21;97954.53;5064409;28;20028;-78
2021/05/24 03:47:34;;;;;;;6.03;2.08;;;;;;;19.39;60.62;97955.25;5039699;28;20039;-79
2021/05/24 03:50:00;;;;;;;7.40;2.05;;;;;;;19.39;60.41;97952.56;5048898;28;20040;-78
2021/05/24 03:52:25;;;;;;;5.43;1.90;;;;;;;19.46;60.09;97952.84;5038867;28;20119;-78
2021/05/24 03:54:51;;;;;;;7.07;2.30;;;;;;;19.54;60.21;97960.28;5040236;28;20032;-78
2021/05/24 03:57:16;;;;;;;8.18;1.95;;;;;;;19.59;60.46;97968.88;5052999;28;20127;-78
2021/05/24 03:59:42;;;;;;;11.13;2.42;;;;;;;19.76;60.59;97974.47;5091559;28;20035;-78
2021/05/24 04:02:37;;;;;;;7.93;2.13;;;;;;;19.94;59.45;97983.63;5075820;28;20031;-77
2021/05/24 04:05:11;;;;;;;7.25;2.33;;;;;;;19.96;58.32;97973.47;5038236;28;20036;-78
2021/05/24 04:07:37;;;;;;;5.65;2.47;;;;;;;20.07;58.56;97987.91;5058970;28;20035;-78
2021/05/24 04:10:03;;;;;;;8.27;2.75;;;;;;;20.06;58.38;97984.31;5059118;28;20027;-77
2021/05/24 04:12:28;;;;;;;6.90;2.00;;;;;;;20.07;58.28;97987.91;5056167;28;20107;-73
2021/05/24 04:14:56;;;;;;;15.55;2.85;;;;;;;20.09;59.05;97985.94;5071631;28;20115;-74
2021/05/24 04:17:23;;;;;;;3.78;1.60;;;;;;;20.04;58.07;97972.75;5071458;28;20020;-75
2021/05/24 04:19:50;;;;;;;13.25;5.60;;;;;;;20.14;56.67;97981.78;5054824;28;20409;-74
2021/05/24 04:22:15;;;;;;;10.20;1.98;;;;;;;20.22;57.37;97983.75;5072280;28;20019;-73
2021/05/24 04:24:41;;;;;;;6.72;2.13;;;;;;;20.30;58.82;97992.09;5086569;28;20032;-72
2021/05/24 04:27:07;;;;;;;6.82;2.17;;;;;;;20.36;57.60;97991.50;5071257;28;20111;-73
2021/05/24 04:29:32;;;;;;;3.65;1.60;;;;;;;20.58;56.96;97991.16;5054711;28;20107;-73
2021/05/24 04:31:58;;;;;;;8.63;2.38;;;;;;;20.67;56.01;97992.16;5070349;28;20020;-72
2021/05/24 04:34:23;;;;;;;3.75;1.80;;;;;;;20.87;54.32;98000.13;5049810;28;20027;-72
2021/05/24 04:36:49;;;;;;;9.52;2.20;;;;;;;21.12;54.92;98005.94;5054492;28;20081;-73
2021/05/24 04:39:14;;;;;;;4.40;1.63;;;;;;;21.33;53.61;97998.38;5071534;28;20431;-74
2021/05/24 04:41:40;;;;;;;3.75;1.83;;;;;;;21.59;52.69;97996.69;5045291;28;20453;-73
2021/05/24 04:44:27;;;;;;;13.77;2.00;;;;;;;21.71;50.24;97994.59;5069227;28;20501;-75
2021/05/24 04:46:52;;;;;;;11.48;1.90;;;;;;;21.90;51.48;97997.22;5082914;28;20063;-77
2021/05/24 04:49:18;;;;;;;5.55;1.73;;;;;;;22.08;49.95;98023.47;5054689;28;20107;-74
2021/05/24 04:51:43;;;;;;;6.65;1.88;;;;;;;22.20;49.80;98015.06;5072758;28;20020;-75
2021/05/24 04:54:09;;;;;;;8.57;2.10;;;;;;;22.48;49.58;98014.81;5071848;28;20023;-75
2021/05/24 04:56:35;;;;;;;6.07;1.73;;;;;;;22.64;48.52;98025.81;5056796;28;20051;-75
2021/05/24 04:59:04;;;;;;;5.68;2.03;;;;;;;22.97;48.73;98031.56;5055952;28;20056;-75
2021/05/24 05:01:32;;;;;;;12.93;3.55;;;;;;;22.70;49.40;98023.53;5074471;28;20024;-76
2021/05/24 05:04:01;;;;;;;24.77;16.05;;;;;;;22.64;50.37;98008.63;5056365;28;20110;-76
2021/05/24 05:06:26;;;;;;;10.77;2.60;;;;;;;22.99;48.96;98030.38;5058565;28;20584;-76
2021/05/24 05:08:52;;;;;;;9.73;4.88;;;;;;;23.62;47.13;98039.13;5074413;28;20024;-76
2021/05/24 05:11:18;;;;;;;10.05;2.33;;;;;;;24.02;46.38;98043.88;5055675;28;20020;-75
2021/05/24 05:13:43;;;;;;;13.40;4.10;;;;;;;24.50;46.81;98050.47;5072667;28;20027;-75
2021/05/24 05:16:10;;;;;;;7.18;2.45;;;;;;;25.84;44.03;98050.66;5056738;28;20114;-75
2021/05/24 05:18:35;;;;;;;9.93;3.13;;;;;;;28.00;40.07;98056.34;5074110;28;20020;-75
2021/05/24 05:21:01;;;;;;;10.80;2.80;;;;;;;29.48;36.84;98067.47;5056922;28;20377;-75
2021/05/24 05:23:27;;;;;;;14.55;3.60;;;;;;;30.99;34.48;98072.81;5057319;28;20475;-75
2021/05/24 05:25:52;;;;;;;21.85;8.13;;;;;;;31.53;32.99;98079.03;5057288;28;20036;-75
2021/05/24 05:28:22;;;;;;;18.08;9.57;;;;;;;31.85;33.14;98093.88;5056807;28;20031;-76
2021/05/24 05:30:49;;;;;;;15.10;7.97;;;;;;;32.27;31.56;98106.34;5057630;28;20040;-76
2021/05/24 05:33:14;;;;;;;11.15;3.55;;;;;;;31.89;32.29;98105.38;5056641;28;20028;-76
2021/05/24 05:35:42;;;;;;;11.40;3.50;;;;;;;31.94;29.98;98102.78;5056670;28;20031;-76
2021/05/24 05:38:08;;;;;;;11.65;3.38;;;;;;;33.55;29.21;98097.72;5056387;28;20498;-75
2021/05/24 05:40:33;;;;;;;6.55;2.63;;;;;;;34.39;27.99;98094.31;5073126;28;20028;-75
2021/05/24 05:42:59;;;;;;;7.78;2.72;;;;;;;34.97;27.37;98096.53;5072749;28;20468;-76
2021/05/24 05:45:24;;;;;;;11.40;2.92;;;;;;;35.73;26.43;98100.25;5073227;28;20049;-76
2021/05/24 05:47:50;;;;;;;15.82;2.83;;;;;;;35.18;27.80;98093.22;5087315;28;20028;-75
2021/05/24 05:50:16;;;;;;;9.30;2.92;;;;;;;36.24;26.58;98104.25;5056119;28;20032;-76
2021/05/24 05:52:41;;;;;;;21.90;3.22;;;;;;;37.18;25.63;98105.66;5056283;28;20047;-76
2021/05/24 05:55:08;;;;;;;19.92;3.15;;;;;;;36.32;26.36;98109.44;5053225;28;20044;-76
2021/05/24 05:57:34;;;;;;;8.35;2.58;;;;;;;36.62;25.62;98112.91;5031479;28;20465;-75
2021/05/24 06:00:00;;;;;;;11.65;3.00;;;;;;;37.31;25.21;98102.56;5053174;28;20113;-75
2021/05/24 06:02:25;;;;;;;16.52;3.35;;;;;;;37.04;25.29;98105.13;5035777;28;20029;-75
2021/05/24 06:04:51;;;;;;;15.13;3.70;;;;;;;37.43;25.72;98109.78;5029271;28;20154;-74
2021/05/24 06:07:17;;;;;;;8.70;2.65;;;;;;;36.99;24.07;98106.97;5035312;28;20029;-75
2021/05/24 06:09:43;;;;;;;7.10;1.50;;;;;;;34.77;24.64;98099.59;5035347;28;20024;-76
2021/05/24 06:12:09;;;;;;;8.70;2.40;;;;;;;34.75;26.04;98116.53;5065840;28;20021;-76
2021/05/24 06:14:36;;;;;;;13.50;3.03;;;;;;;35.35;25.89;98111.78;5053024;28;20037;-79
2021/05/24 06:17:02;;;;;;;12.23;2.65;;;;;;;36.09;25.60;98120.59;5035913;28;20024;-79
2021/05/24 06:19:28;;;;;;;9.70;2.90;;;;;;;37.86;23.71;98109.13;5069011;28;20494;-79
2021/05/24 06:21:53;;;;;;;6.63;2.67;;;;;;;36.44;24.76;98121.41;5068160;28;20032;-79
2021/05/24 06:24:19;;;;;;;12.02;2.67;;;;;;;36.88;24.53;98134.66;5036534;28;20034;-80
2021/05/24 06:26:44;;;;;;;12.38;2.50;;;;;;;35.97;24.99;98130.88;5066821;28;20479;-79
2021/05/24 06:29:10;;;;;;;12.90;5.28;;;;;;;36.15;25.88;98139.13;5052520;28;20084;-80
2021/05/24 06:31:36;;;;;;;12.73;2.95;;;;;;;35.47;25.20;98147.97;5036105;28;20484;-79
2021/05/24 06:34:02;;;;;;;7.72;3.20;;;;;;;34.57;26.08;98149.88;5035881;28;20012;-78
2021/05/24 06:36:31;;;;;;;19.60;6.75;;;;;;;34.67;27.92;98160.50;5035867;28;20048;-79
2021/05/24 06:38:56;;;;;;;7.63;2.30;;;;;;;33.91;27.61;98154.41;5036153;28;20488;-78
2021/05/24 06:41:22;;;;;;;21.92;5.45;;;;;;;34.23;26.93;98158.81;5052708;28;20039;-80
2021/05/24 06:43:48;;;;;;;4.38;2.00;;;;;;;34.67;26.41;98158.53;5035985;28;20439;-78
2021/05/24 06:46:13;;;;;;;3.47;1.98;;;;;;;35.62;25.64;98145.66;5036146;28;20037;-79
2021/05/24 06:48:39;;;;;;;5.53;2.30;;;;;;;35.51;26.02;98152.00;5052886;28;20028;-77
2021/05/24 06:51:04;;;;;;;8.30;1.85;;;;;;;36.71;24.11;98136.53;5036191;28;20415;-78
2021/05/24 06:53:30;;;;;;;10.77;2.78;;;;;;;37.67;23.20;98138.41;5036097;28;20086;-77
2021/05/24 06:55:56;;;;;;;7.47;2.08;;;;;;;37.21;22.83;98108.81;5050211;28;20044;-73
2021/05/24 06:58:21;;;;;;;6.15;1.98;;;;;;;36.89;23.00;98114.00;5054424;28;20036;-78
2021/05/24 07:00:47;;;;;;;6.00;1.52;;;;;;;36.06;21.89;98093.22;5072723;28;20435;-79
2021/05/24 07:03:13;;;;;;;6.05;1.92;;;;;;;35.65;22.41;98097.84;5055680;28;20097;-77
2021/05/24 07:05:38;;;;;;;3.03;1.40;;;;;;;36.37;22.79;98098.38;5055345;28;20060;-78
2021/05/24 07:08:04;;;;;;;6.68;3.55;;;;;;;37.36;22.45;98088.69;5072597;28;20545;-77
2021/05/24 07:10:30;;;;;;;4.78;1.70;;;;;;;38.32;21.35;98107.88;5056323;28;20036;-80
2021/05/24 07:12:55;;;;;;;3.92;1.92;;;;;;;38.80;20.68;98104.34;5056812;28;20546;-80
2021/05/24 07:15:21;;;;;;;4.47;1.55;;;;;;;38.02;20.41;98092.59;5089871;28;20090;-81
2021/05/24 07:17:46;;;;;;;2.78;1.45;;;;;;;36.47;22.73;98109.75;5056656;28;20570;-80
2021/05/24 07:20:12;;;;;;;4.50;1.80;;;;;;;36.03;24.26;98113.19;5058780;28;20549;-80
2021/05/24 07:22:38;;;;;;;3.83;1.52;;;;;;;36.33;22.32;98103.59;5060197;28;20044;-78
2021/05/24 07:25:05;;;;;;;5.65;1.70;;;;;;;37.47;21.95;98101.78;5059989;28;20024;-78
2021/05/24 07:27:31;;;;;;;5.70;2.20;;;;;;;37.59;22.23;98118.44;5059936;28;20031;-79
2021/05/24 07:29:57;;;;;;;9.50;1.90;;;;;;;37.84;20.78;98116.06;5059959;28;20031;-79
2021/05/24 07:32:22;;;;;;;3.38;1.58;;;;;;;37.32;21.87;98101.44;5059285;28;20024;-80
2021/05/24 07:34:48;;;;;;;2.88;1.52;;;;;;;37.60;20.58;98114.53;5075582;28;20020;-80
2021/05/24 07:37:14;;;;;;;5.00;1.60;;;;;;;38.76;20.25;98119.94;5060033;28;20038;-80
2021/05/24 07:39:39;;;;;;;5.05;1.50;;;;;;;37.91;20.89;98100.84;5059452;28;20024;-79
2021/05/24 07:42:06;;;;;;;5.43;1.90;;;;;;;36.97;22.71;98120.31;5058856;28;20062;-79
2021/05/24 07:44:35;;;;;;;4.60;1.60;;;;;;;36.12;22.17;98098.69;5076235;28;20569;-79
2021/05/24 07:47:01;;;;;;;5.57;1.80;;;;;;;36.94;20.75;98110.50;5059780;28;20074;-80
2021/05/24 07:49:28;;;;;;;6.32;1.67;;;;;;;37.33;21.80;98125.47;5059318;28;20536;-79
2021/05/24 07:51:53;;;;;;;5.50;1.80;;;;;;;37.29;21.69;98119.56;5075693;28;20024;-79
2021/05/24 07:54:19;;;;;;;4.57;1.75;;;;;;;38.14;20.36;98118.50;5058301;28;20034;-79
2021/05/24 07:56:46;;;;;;;2.08;1.52;;;;;;;39.01;20.23;98123.06;5058525;28;20132;-79
2021/05/24 07:59:12;;;;;;;15.15;1.90;;;;;;;38.28;20.10;98131.00;5065405;28;20036;-78
2021/05/24 08:01:38;;;;;;;30.85;3.03;;;;;;;35.71;22.34;98127.50;5091888;28;20518;-78
2021/05/24 08:04:04;;;;;;;18.80;1.77;;;;;;;36.79;22.00;98121.34;5091889;28;20055;-79
2021/05/24 08:06:30;;;;;;;6.65;1.55;;;;;;;37.49;21.30;98123.84;5067645;28;20027;-79
2021/05/24 08:08:55;;;;;;;12.90;2.53;;;;;;;38.51;21.14;98130.81;5058675;28;20069;-79
2021/05/24 08:11:21;;;;;;;3.13;1.50;;;;;;;37.53;21.26;98111.94;5058764;28;20024;-79
2021/05/24 08:13:47;;;;;;;4.82;2.10;;;;;;;38.24;20.87;98121.47;5058398;28;20028;-87
2021/05/24 08:16:13;;;;;;;18.27;2.97;;;;;;;37.33;21.80;98117.97;5057933;28;20032;-86
2021/05/24 08:18:43;;;;;;;3.85;1.50;;;;;;;37.61;21.67;98117.06;5059588;28;20451;-87
2021/05/24 08:21:09;;;;;;;4.80;1.83;;;;;;;38.50;20.39;98115.13;5059869;28;20036;-86
2021/05/24 08:23:35;;;;;;;9.30;2.28;;;;;;;38.72;20.29;98113.19;5076088;28;20036;-87
2021/05/24 08:26:01;;;;;;;3.17;1.85;;;;;;;39.24;20.46;98104.28;5076598;28;20089;-84
2021/05/24 08:28:27;;;;;;;12.00;2.10;;;;;;;39.28;21.36;98113.88;5059434;28;20043;-86
2021/05/24 08:30:53;;;;;;;6.60;2.10;;;;;;;39.23;20.60;98103.44;5058627;28;20104;-86
2021/05/24 08:33:21;;;;;;;9.52;2.35;;;;;;;37.59;21.52;98096.09;5059215;28;20032;-85
2021/05/24 08:35:47;;;;;;;6.43;2.50;;;;;;;38.06;21.37;98113.34;5075779;28;20032;-86
2021/05/24 08:38:13;;;;;;;7.45;2.15;;;;;;;39.21;21.49;98110.38;5099478;28;20135;-86
2021/05/24 08:40:48;;;;;;;4.20;2.22;;;;;;;38.10;20.75;98098.59;5058926;28;20039;-85
2021/05/24 08:43:15;;;;;;;8.18;3.08;;;;;;;36.99;22.18;98096.66;5094191;28;20028;-86
2021/05/24 08:45:42;;;;;;;8.10;2.28;;;;;;;38.18;22.91;98114.91;5092876;28;20600;-86
2021/05/24 08:48:08;;;;;;;3.65;1.83;;;;;;;37.51;21.13;98097.34;5060419;28;20038;-85
2021/05/24 08:50:46;;;;;;;9.27;2.33;;;;;;;37.52;22.18;98096.25;5061193;28;20044;-86
2021/05/24 08:53:11;;;;;;;2.63;1.73;;;;;;;38.29;20.57;98100.00;5060006;28;20490;-85
2021/05/24 08:55:37;;;;;;;8.35;2.10;;;;;;;38.87;22.10;98098.53;5059211;28;20040;-86
2021/05/24 08:58:03;;;;;;;4.80;2.03;;;;;;;38.81;20.32;98089.25;5058681;28;20028;-86
2021/05/24 09:00:29;;;;;;;7.82;2.33;;;;;;;39.45;20.11;98086.56;5058592;28;20491;-86
2021/05/24 09:02:56;;;;;;;4.88;2.33;;;;;;;40.11;21.34;98103.94;5074836;28;20093;-88
2021/05/24 09:05:29;;;;;;;32.92;3.80;;;;;;;40.11;20.26;98098.34;5058146;28;20070;-86
2021/05/24 09:08:00;;;;;;;33.35;3.38;;;;;;;39.97;20.36;98090.38;5075489;28;20403;-86
2021/05/24 09:10:29;;;;;;;7.30;2.10;;;;;;;39.83;19.43;98079.91;5075546;28;20544;-87
2021/05/24 09:12:55;;;;;;;3.78;2.10;;;;;;;39.83;20.08;98075.16;5058518;28;20093;-85
2021/05/24 09:15:25;;;;;;;11.57;2.85;;;;;;;39.34;20.99;98088.44;5074998;28;20407;-87
2021/05/24 09:17:53;;;;;;;3.30;2.25;;;;;;;38.77;20.73;98079.66;5058903;28;20032;-86
2021/05/24 09:20:45;;;;;;;3.40;1.90;;;;;;;38.01;20.25;98058.22;5076602;28;20016;-88
2021/05/24 09:23:33;;;;;;;7.63;2.40;;;;;;;38.40;21.42;98053.44;5076189;28;20492;-87
2021/05/24 09:26:09;;;;;;;3.85;2.40;;;;;;;38.48;21.66;98067.84;5059597;28;20067;-87
2021/05/24 09:28:46;;;;;;;13.65;4.35;;;;;;;38.48;21.56;98070.66;5059128;28;20024;-86
2021/05/24 09:31:25;;;;;;;7.70;2.03;;;;;;;38.29;22.28;98062.78;5059120;28;20031;-87
2021/05/24 09:33:53;;;;;;;6.40;2.95;;;;;;;39.26;21.25;98060.91;5075708;28;20035;-87
2021/05/24 09:36:22;;;;;;;6.05;3.08;;;;;;;38.44;20.72;98049.03;5076476;28;20140;-87
2021/05/24 09:38:50;;;;;;;4.20;2.30;;;;;;;38.31;21.81;98054.97;5059016;28;20272;-86
2021/05/24 09:41:19;;;;;;;9.98;2.28;;;;;;;38.85;20.60;98048.44;5075143;28;20016;-87
2021/05/24 09:43:50;;;;;;;6.47;2.83;;;;;;;37.97;21.85;98018.75;5073799;28;20503;-88
2021/05/24 09:46:18;;;;;;;4.13;2.03;;;;;;;38.24;21.65;98037.56;5050476;28;20020;-88
2021/05/24 09:48:46;;;;;;;9.02;2.25;;;;;;;39.27;20.85;98037.38;5057778;28;20097;-86
2021/05/24 09:51:14;;;;;;;8.35;3.17;;;;;;;39.94;19.69;98018.00;5057771;28;20411;-85
2021/05/24 09:53:42;;;;;;;5.00;2.45;;;;;;;38.01;22.08;98021.03;5090975;28;20121;-86
2021/05/24 09:56:14;;;;;;;6.75;2.92;;;;;;;38.49;21.42;98035.94;5074441;28;20053;-87
2021/05/24 09:58:40;;;;;;;8.65;2.88;;;;;;;38.47;22.70;98046.56;5057669;28;20124;-87
2021/05/24 10:01:18;;;;;;;6.07;2.38;;;;;;;40.41;20.31;98054.47;5057771;28;20440;-86
2021/05/24 10:03:44;;;;;;;8.13;2.95;;;;;;;41.23;19.25;98052.75;5059088;28;20031;-89
2021/05/24 10:06:10;;;;;;;4.68;2.67;;;;;;;41.53;19.72;98047.22;5058388;28;20465;-85
2021/05/24 10:08:36;;;;;;;8.80;3.15;;;;;;;39.89;19.73;98032.00;5057445;28;20028;-86
2021/05/24 10:11:02;;;;;;;6.53;3.28;;;;;;;39.30;20.44;98038.81;5073887;28;20026;-86
2021/05/24 10:13:28;;;;;;;5.20;2.30;;;;;;;40.47;19.37;98039.34;5057143;28;20080;-87
2021/05/24 10:16:01;;;;;;;17.30;2.88;;;;;;;41.09;19.09;98033.69;5073515;28;20032;-86
2021/05/24 10:18:31;;;;;;;5.80;2.83;;;;;;;41.17;18.93;98020.19;5074072;28;20111;-86
2021/05/24 10:21:06;;;;;;;5.13;2.30;;;;;;;40.86;20.67;98036.09;5074534;28;20020;-87
2021/05/24 10:23:32;;;;;;;7.68;3.67;;;;;;;38.62;20.48;98023.50;5090810;28;20024;-85
2021/05/24 10:26:00;;;;;;;7.88;2.47;;;;;;;37.77;22.49;98026.81;5057288;28;20039;-86
2021/05/24 10:28:30;;;;;;;6.05;4.00;;;;;;;37.28;22.40;98022.94;5090848;28;20039;-86
2021/05/24 10:30:57;;;;;;;6.47;2.93;;;;;;;36.43;24.01;98027.69;5057190;28;20035;-85
2021/05/24 10:33:27;;;;;;;3.13;2.10;;;;;;;36.51;24.01;98021.75;5073392;28;20024;-86
2021/05/24 10:36:36;;;;;;;5.07;2.88;;;;;;;36.72;23.16;98012.72;5076026;28;20055;-87
2021/05/24 10:39:11;;;;;;;6.53;3.67;;;;;;;36.54;24.95;98015.72;5081765;28;20062;-87
2021/05/24 10:41:45;;;;;;;8.85;3.40;;;;;;;35.69;25.20;98012.69;5063163;28;20031;-86
2021/05/24 10:44:16;;;;;;;7.88;2.78;;;;;;;34.68;25.84;97978.66;5064447;28;20032;-85
2021/05/24 10:46:42;;;;;;;6.57;2.73;;;;;;;34.19;27.46;97960.31;5070826;28;20052;-87
2021/05/24 10:49:21;;;;;;;4.55;2.58;;;;;;;33.86;27.18;98020.97;5064662;28;20047;-87
2021/05/24 10:52:05;;;;;;;9.48;2.72;;;;;;;33.32;27.29;97980.94;5078549;28;20028;-86
2021/05/24 10:54:40;;;;;;;6.72;2.90;;;;;;;32.84;27.71;98010.34;5044735;28;20037;-85
2021/05/24 10:57:13;;;;;;;10.00;2.60;;;;;;;33.29;28.38;97995.28;5054164;28;20083;-85
2021/05/24 10:59:38;;;;;;;9.13;3.33;;;;;;;35.19;25.92;98011.47;5061293;28;20071;-87
2021/05/24 11:02:08;;;;;;;3.58;2.20;;;;;;;36.59;24.10;97999.06;5076744;28;20055;-85
2021/05/24 11:05:01;;;;;;;6.10;2.40;;;;;;;37.50;22.79;97995.13;5078009;28;20031;-86
2021/05/24 11:08:03;;;;;;;20.95;4.18;;;;;;;37.78;22.92;97994.13;5077226;28;20032;-87
2021/05/24 11:10:43;;;;;;;;;;;;;;;36.67;25.58;98014.56;4980804;28;20053;-86
2021/05/24 11:13:11;;;;;;;10.00;3.53;;;;;;;36.46;25.57;97995.69;5051599;28;19924;-86
2021/05/24 11:15:42;;;;;;;5.75;2.60;;;;;;;35.73;25.33;97988.84;5077565;28;20085;-86
2021/05/24 11:18:08;;;;;;;7.80;3.10;;;;;;;35.35;26.62;98007.94;5059926;28;20085;-86
2021/05/24 11:20:48;;;;;;;7.78;3.30;;;;;;;34.68;26.48;97993.41;5077153;28;20101;-86
2021/05/24 11:23:26;;;;;;;11.38;4.00;;;;;;;33.91;28.01;97985.00;5060233;28;20066;-86
2021/05/24 11:26:16;;;;;;;9.90;3.60;;;;;;;33.66;27.73;97988.72;5076585;28;20024;-87
2021/05/24 11:29:16;;;;;;;8.43;3.10;;;;;;;33.42;28.98;97997.91;5084649;28;20036;-86
2021/05/24 11:31:46;;;;;;;7.10;2.90;;;;;;;33.61;27.24;97990.50;5059681;28;20471;-86
2021/05/24 11:34:34;;;;;;;12.52;3.58;;;;;;;33.46;28.84;97987.22;5059668;28;20054;-86